createdAt,value
2022-09-05T00:02:41.706Z,35.25
2022-09-05T00:05:29.492Z,35.08
2022-09-05T00:08:07.535Z,35.19
2022-09-05T00:11:40.001Z,35.19
2022-09-05T00:13:43.644Z,34.90
2022-09-05T00:16:30.246Z,35.22
2022-09-05T00:24:22.750Z,35.03
2022-09-05T00:24:37.911Z,35.17
2022-09-05T00:25:31.730Z,35.07
2022-09-05T00:28:26.081Z,35.16
2022-09-05T00:31:53.610Z,35.62
2022-09-05T00:34:35.973Z,35.59
2022-09-05T00:37:32.169Z,35.37
2022-09-05T00:40:20.678Z,35.30
2022-09-05T00:42:53.613Z,35.69
2022-09-05T00:45:29.502Z,35.27
2022-09-05T00:48:07.308Z,35.49
2022-09-05T00:50:46.298Z,35.59
2022-09-05T00:53:21.421Z,35.49
2022-09-05T00:56:04.304Z,35.80
2022-09-05T00:58:52.312Z,35.73
2022-09-05T01:01:31.264Z,35.85
2022-09-05T01:04:17.892Z,35.77
2022-09-05T01:07:05.026Z,35.83
2022-09-05T01:09:50.025Z,36.04
2022-09-05T01:12:50.118Z,36.11
2022-09-05T01:15:33.874Z,36.46
2022-09-05T01:18:28.076Z,36.43
2022-09-05T01:21:48.154Z,35.75
2022-09-05T01:24:46.815Z,36.20
2022-09-05T01:28:54.991Z,36.28
2022-09-05T01:30:47.430Z,36.01
2022-09-05T01:33:26.520Z,36.66
2022-09-05T01:36:18.481Z,36.06
2022-09-05T01:39:51.586Z,36.81
2022-09-05T01:41:58.588Z,36.49
2022-09-05T01:44:42.968Z,36.72
2022-09-05T01:47:30.963Z,36.60
2022-09-05T01:50:10.463Z,36.48
2022-09-05T01:52:57.742Z,36.46
2022-09-05T01:56:05.154Z,36.63
2022-09-05T01:58:50.778Z,36.54
2022-09-05T02:01:32.600Z,37.11
2022-09-05T02:04:21.868Z,37.11
2022-09-05T02:07:15.195Z,36.64
2022-09-05T02:10:13.351Z,37.08
2022-09-05T02:13:01.908Z,37.03
2022-09-05T02:15:42.926Z,37.11
2022-09-05T02:18:25.102Z,37.30
2022-09-05T02:20:58.364Z,37.34
2022-09-05T02:23:40.939Z,37.30
2022-09-05T02:26:17.797Z,37.03
2022-09-05T02:28:55.349Z,37.30
2022-09-05T02:31:31.502Z,37.41
2022-09-05T02:34:09.386Z,37.33
2022-09-05T02:36:44.552Z,37.42
2022-09-05T02:45:04.248Z,37.53
2022-09-05T02:45:13.249Z,37.48
2022-09-05T02:45:26.686Z,37.74
2022-09-05T02:48:15.190Z,37.58
2022-09-05T02:57:27.276Z,37.61
2022-09-05T02:57:39.946Z,37.39
2022-09-05T02:57:46.251Z,37.69
2022-09-05T03:00:02.688Z,37.51
2022-09-05T03:02:38.546Z,37.79
2022-09-05T03:05:14.446Z,37.74
2022-09-05T03:08:09.057Z,37.81
2022-09-05T03:11:08.577Z,37.71
2022-09-05T03:14:28.129Z,37.65
2022-09-05T03:17:29.700Z,37.98
2022-09-05T03:20:41.816Z,38.37
2022-09-05T03:24:00.768Z,38.39
2022-09-05T03:26:57.652Z,38.37
2022-09-05T03:30:12.189Z,38.22
2022-09-05T03:33:08.102Z,38.10
2022-09-05T03:36:09.912Z,38.14
2022-09-05T03:39:23.612Z,38.57
2022-09-05T03:42:31.772Z,38.14
2022-09-05T03:45:36.357Z,38.17
2022-09-05T03:48:32.598Z,38.18
2022-09-05T03:56:58.247Z,38.42
2022-09-05T03:57:11.219Z,38.68
2022-09-05T03:58:08.829Z,38.27
2022-09-05T04:01:10.821Z,38.46
2022-09-05T04:08:14.024Z,38.42
2022-09-05T04:08:26.112Z,38.59
2022-09-05T04:09:51.190Z,38.26
2022-09-05T04:12:27.333Z,38.42
2022-09-05T04:15:01.404Z,38.26
2022-09-05T04:17:37.297Z,38.49
2022-09-05T04:20:13.419Z,38.74
2022-09-05T04:23:05.494Z,38.54
2022-09-05T04:25:49.552Z,38.40
2022-09-05T04:28:53.442Z,38.38
2022-09-05T04:31:36.477Z,38.61
2022-09-05T04:34:18.089Z,38.70
2022-09-05T04:37:01.771Z,38.49
2022-09-05T04:39:35.043Z,38.52
2022-09-05T04:42:17.623Z,38.83
2022-09-05T04:44:47.850Z,39.06
2022-09-05T04:47:21.815Z,38.85
2022-09-05T04:49:58.892Z,38.84
2022-09-05T04:52:53.861Z,38.47
2022-09-05T04:55:26.987Z,38.45
2022-09-05T04:57:59.857Z,38.83
2022-09-05T05:05:58.506Z,39.21
2022-09-05T05:06:14.486Z,38.89
2022-09-05T05:06:42.286Z,39.21
2022-09-05T05:09:21.825Z,38.90
2022-09-05T05:18:01.502Z,38.93
2022-09-05T05:18:07.633Z,39.08
2022-09-05T05:18:10.720Z,39.11
2022-09-05T05:20:42.766Z,39.18
2022-09-05T05:23:16.228Z,39.27
2022-09-05T05:25:52.085Z,39.67
2022-09-05T05:28:29.988Z,39.67
2022-09-05T05:31:10.414Z,39.48
2022-09-05T05:33:41.284Z,39.00
2022-09-05T05:36:19.332Z,39.75
2022-09-05T05:38:53.669Z,39.55
2022-09-05T05:41:26.766Z,39.63
2022-09-05T05:43:55.201Z,39.54
2022-09-05T05:46:33.998Z,40.07
2022-09-05T05:49:16.571Z,40.14
2022-09-05T05:52:02.621Z,39.69
2022-09-05T05:54:43.594Z,40.29
2022-09-05T05:57:41.539Z,40.30
2022-09-05T06:00:27.692Z,39.89
2022-09-05T06:03:33.117Z,40.04
2022-09-05T06:06:22.932Z,39.99
2022-09-05T06:13:14.626Z,40.42
2022-09-05T06:15:02.949Z,40.05
2022-09-05T06:16:41.564Z,40.34
2022-09-05T06:20:45.934Z,40.07
2022-09-05T06:23:39.133Z,40.31
2022-09-05T06:26:42.518Z,39.99
2022-09-05T06:29:37.980Z,40.29
2022-09-05T06:32:22.115Z,40.06
2022-09-05T06:35:20.228Z,40.04
2022-09-05T06:38:03.415Z,40.10
2022-09-05T06:40:37.715Z,39.57
2022-09-05T06:43:18.986Z,39.94
2022-09-05T06:46:52.823Z,39.91
2022-09-05T06:49:30.161Z,39.54
2022-09-05T06:52:32.197Z,39.80
2022-09-05T06:55:38.916Z,39.38
2022-09-05T06:58:42.278Z,39.91
2022-09-05T07:01:13.722Z,39.59
2022-09-05T07:05:21.776Z,39.30
2022-09-05T07:07:06.824Z,39.53
2022-09-05T07:09:52.357Z,39.41
2022-09-05T07:12:29.984Z,39.51
2022-09-05T07:15:15.042Z,38.59
2022-09-05T07:18:10.179Z,38.49
2022-09-05T07:21:17.781Z,38.34
2022-09-05T07:24:09.966Z,38.01
2022-09-05T07:26:54.007Z,37.76
2022-09-05T07:29:29.927Z,37.55
2022-09-05T07:32:02.299Z,37.16
2022-09-05T07:34:32.585Z,37.42
2022-09-05T07:37:15.057Z,37.10
2022-09-05T07:39:50.280Z,36.72
2022-09-05T07:42:26.817Z,36.06
2022-09-05T07:44:59.106Z,36.23
2022-09-05T07:47:30.435Z,36.68
2022-09-05T07:51:00.701Z,35.60
2022-09-05T07:56:50.494Z,35.51
2022-09-05T07:57:03.722Z,35.43
2022-09-05T07:58:40.143Z,34.51
2022-09-05T08:01:10.661Z,34.50
2022-09-05T08:03:40.870Z,34.21
2022-09-05T08:06:14.955Z,33.16
2022-09-05T08:09:59.522Z,32.56
2022-09-05T08:12:02.837Z,32.87
2022-09-05T08:14:45.951Z,31.30
2022-09-05T08:17:19.396Z,31.30
2022-09-05T08:19:58.862Z,30.97
2022-09-05T08:22:52.101Z,30.91
2022-09-05T08:25:36.317Z,30.87
2022-09-05T08:28:22.669Z,30.53
2022-09-05T08:30:59.933Z,30.03
2022-09-05T08:33:34.409Z,29.35
2022-09-05T08:36:10.278Z,29.39
2022-09-05T08:38:41.246Z,29.31
2022-09-05T08:41:16.650Z,27.73
2022-09-05T08:46:36.519Z,27.86
2022-09-05T08:46:52.856Z,27.39
2022-09-05T08:49:50.455Z,27.27
2022-09-05T08:52:31.781Z,27.47
2022-09-05T08:55:13.791Z,27.14
2022-09-05T08:58:00.002Z,28.75
2022-09-05T09:00:36.146Z,27.17
2022-09-05T09:03:18.651Z,26.92
2022-09-05T09:06:22.066Z,27.23
2022-09-05T09:09:15.832Z,27.04
2022-09-05T09:11:52.681Z,26.69
2022-09-05T09:14:47.380Z,26.74
2022-09-05T09:17:26.316Z,26.20
2022-09-05T09:20:12.956Z,26.10
2022-09-05T09:22:51.353Z,25.76
2022-09-05T09:25:27.880Z,24.60
2022-09-05T09:28:49.876Z,25.11
2022-09-05T09:31:30.158Z,25.52
2022-09-05T09:34:19.671Z,25.34
2022-09-05T09:37:08.511Z,24.63
2022-09-05T09:39:52.001Z,24.63
2022-09-05T09:42:34.618Z,24.39
2022-09-05T09:45:27.809Z,24.59
2022-09-05T09:48:26.950Z,24.72
2022-09-05T09:51:26.946Z,25.26
2022-09-05T09:54:09.958Z,24.38
2022-09-05T09:57:22.559Z,24.10
2022-09-05T10:00:12.146Z,24.21
2022-09-05T10:06:43.731Z,24.46
2022-09-05T10:10:46.045Z,22.81
2022-09-05T10:10:46.045Z,23.78
2022-09-05T10:12:30.018Z,22.55
2022-09-05T10:15:27.769Z,22.31
2022-09-05T10:18:25.349Z,21.86
2022-09-05T10:21:16.489Z,22.22
2022-09-05T10:24:06.250Z,23.73
2022-09-05T10:27:13.041Z,21.73
2022-09-05T10:29:46.853Z,21.32
2022-09-05T10:35:06.039Z,20.55
2022-09-05T10:35:27.513Z,20.02
2022-09-05T10:38:10.715Z,19.99
2022-09-05T10:41:21.600Z,20.33
2022-09-05T10:43:36.305Z,20.83
2022-09-05T10:46:39.706Z,19.78
2022-09-05T10:49:09.508Z,21.01
2022-09-05T10:51:51.824Z,19.58
2022-09-05T10:54:38.509Z,19.87
2022-09-05T10:57:20.687Z,19.83
2022-09-05T11:02:24.032Z,19.70
2022-09-05T11:02:58.560Z,19.55
2022-09-05T11:05:28.757Z,19.90
2022-09-05T11:08:08.930Z,19.24
2022-09-05T11:10:40.854Z,19.04
2022-09-05T11:13:17.990Z,18.14
2022-09-05T11:16:04.954Z,17.96
2022-09-05T11:18:57.442Z,18.06
2022-09-05T11:21:42.519Z,18.41
2022-09-05T11:24:27.632Z,17.76
2022-09-05T11:27:25.068Z,17.71
2022-09-05T11:29:51.646Z,17.73
2022-09-05T11:39:39.537Z,17.12
2022-09-05T11:39:53.972Z,17.49
2022-09-05T11:40:04.229Z,17.54
2022-09-05T11:41:54.930Z,17.74
2022-09-05T11:44:33.410Z,17.44
2022-09-05T11:47:43.498Z,17.73
2022-09-05T11:50:43.508Z,17.29
2022-09-05T11:53:44.146Z,17.64
2022-09-05T11:56:48.060Z,17.51
2022-09-05T11:59:44.997Z,16.68
2022-09-05T12:02:34.674Z,17.20
2022-09-05T12:05:50.129Z,17.20
2022-09-05T12:08:36.792Z,16.83
2022-09-05T12:11:18.196Z,16.36
2022-09-05T12:13:51.236Z,16.89
2022-09-05T12:16:38.246Z,16.31
2022-09-05T12:19:22.732Z,16.35
2022-09-05T12:22:16.508Z,16.55
2022-09-05T12:27:36.777Z,16.65
2022-09-05T12:29:28.142Z,16.73
2022-09-05T12:32:19.541Z,16.58
2022-09-05T12:36:07.147Z,15.98
2022-09-05T12:40:16.646Z,16.63
2022-09-05T12:40:59.551Z,16.75
2022-09-05T12:42:56.161Z,16.68
2022-09-05T12:45:50.330Z,15.95
2022-09-05T12:48:39.348Z,16.35
2022-09-05T12:51:14.413Z,15.74
2022-09-05T12:54:09.386Z,16.46
2022-09-05T13:02:55.635Z,15.82
2022-09-05T13:03:04.283Z,15.93
2022-09-05T13:03:07.760Z,16.10
2022-09-05T13:05:52.158Z,15.32
2022-09-05T13:08:27.819Z,16.23
2022-09-05T13:14:49.232Z,16.10
2022-09-05T13:15:01.689Z,15.50
2022-09-05T13:16:48.372Z,15.84
2022-09-05T13:19:31.176Z,15.52
2022-09-05T13:22:02.028Z,15.70
2022-09-05T13:24:38.622Z,15.91
2022-09-05T13:27:13.849Z,15.37
2022-09-05T13:31:56.334Z,15.00
2022-09-05T13:37:58.358Z,15.20
2022-09-05T13:38:11.029Z,15.33
2022-09-05T13:38:48.566Z,15.04
2022-09-05T13:41:28.632Z,15.24
2022-09-05T13:44:25.524Z,15.75
2022-09-05T13:46:58.622Z,15.27
2022-09-05T13:49:33.360Z,14.92
2022-09-05T13:52:28.207Z,15.20
2022-09-05T13:55:10.125Z,15.39
2022-09-05T13:57:44.641Z,15.18
2022-09-05T14:00:51.629Z,14.88
2022-09-05T14:03:50.619Z,14.82
2022-09-05T14:06:47.108Z,14.37
2022-09-05T14:09:36.597Z,15.11
2022-09-05T14:12:11.820Z,14.70
2022-09-05T14:17:56.847Z,15.04
2022-09-05T14:20:49.480Z,14.69
2022-09-05T14:23:19.931Z,15.17
2022-09-05T14:25:55.024Z,14.53
2022-09-05T14:28:28.230Z,14.90
2022-09-05T14:33:01.072Z,13.97
2022-09-05T14:37:42.860Z,14.14
2022-09-05T14:37:51.223Z,13.95
2022-09-05T14:40:29.848Z,14.43
2022-09-05T14:43:30.881Z,14.31
2022-09-05T14:46:17.685Z,14.32
2022-09-05T14:49:10.865Z,14.55
2022-09-05T14:51:47.232Z,14.17
2022-09-05T15:00:17.298Z,13.92
2022-09-05T15:02:50.349Z,14.31
2022-09-05T15:03:05.980Z,14.31
2022-09-05T15:05:41.584Z,14.53
2022-09-05T15:08:22.738Z,14.78
2022-09-05T15:12:21.502Z,14.69
2022-09-05T15:13:58.356Z,14.75
2022-09-05T15:16:27.070Z,14.70
2022-09-05T15:18:58.493Z,14.78
2022-09-05T15:21:33.691Z,14.35
2022-09-05T15:24:13.575Z,14.33
2022-09-05T15:26:52.856Z,14.38
2022-09-05T15:29:25.487Z,14.76
2022-09-05T15:32:08.922Z,14.71
2022-09-05T15:34:40.986Z,14.10
2022-09-05T15:37:29.819Z,14.69
2022-09-05T15:40:23.373Z,14.57
2022-09-05T15:42:56.252Z,14.48
2022-09-05T15:45:28.271Z,15.65
2022-09-05T15:48:08.883Z,16.62
2022-09-05T15:50:45.059Z,16.90
2022-09-05T15:53:22.276Z,16.96
2022-09-05T15:55:56.392Z,17.39
2022-09-05T15:58:52.369Z,17.12
2022-09-05T16:01:30.418Z,17.45
2022-09-05T16:10:30.137Z,17.99
2022-09-05T16:10:42.368Z,17.60
2022-09-05T16:10:47.147Z,18.00
2022-09-05T16:12:47.352Z,17.50
2022-09-05T16:19:38.954Z,18.01
2022-09-05T16:23:18.432Z,18.43
2022-09-05T16:23:24.619Z,18.38
2022-09-05T16:24:04.923Z,18.55
2022-09-05T16:26:37.392Z,18.19
2022-09-05T16:29:11.612Z,18.59
2022-09-05T16:31:45.260Z,18.71
2022-09-05T16:34:23.400Z,18.87
2022-09-05T16:37:08.167Z,19.13
2022-09-05T16:39:43.803Z,19.21
2022-09-05T16:42:18.700Z,19.14
2022-09-05T16:44:53.859Z,19.20
2022-09-05T16:47:29.215Z,19.45
2022-09-05T16:50:05.129Z,19.55
2022-09-05T16:52:54.201Z,19.39
2022-09-05T16:55:33.233Z,19.00
2022-09-05T16:58:14.245Z,18.73
2022-09-05T17:00:53.421Z,18.90
2022-09-05T17:03:28.282Z,18.78
2022-09-05T17:06:07.885Z,18.86
2022-09-05T17:08:37.651Z,18.66
2022-09-05T17:11:13.829Z,19.19
2022-09-05T17:14:07.176Z,19.67
2022-09-05T17:16:40.756Z,18.80
2022-09-05T17:19:22.246Z,18.51
2022-09-05T17:25:16.865Z,18.39
2022-09-05T17:29:20.173Z,18.52
2022-09-05T17:29:36.338Z,18.60
2022-09-05T17:33:49.780Z,19.58
2022-09-05T17:36:21.464Z,19.44
2022-09-05T17:38:55.540Z,19.75
2022-09-05T17:41:43.425Z,19.67
2022-09-05T17:44:19.439Z,19.80
2022-09-05T17:46:53.513Z,19.78
2022-09-05T17:49:42.846Z,19.87
2022-09-05T17:52:29.025Z,19.81
2022-09-05T17:54:57.829Z,19.61
2022-09-05T17:57:39.485Z,20.04
2022-09-05T18:00:22.643Z,19.82
2022-09-05T18:02:56.544Z,19.57
2022-09-05T18:05:48.840Z,19.87
2022-09-05T18:08:37.458Z,19.69
2022-09-05T18:11:14.105Z,19.70
2022-09-05T18:13:57.385Z,19.98
2022-09-05T18:16:31.380Z,19.66
2022-09-05T18:19:33.468Z,19.81
2022-09-05T18:22:08.405Z,19.88
2022-09-05T18:24:42.387Z,19.87
2022-09-05T18:27:43.936Z,19.80
2022-09-05T18:30:12.724Z,20.11
2022-09-05T18:32:45.248Z,19.91
2022-09-05T18:35:37.365Z,19.99
2022-09-05T18:38:16.938Z,20.04
2022-09-05T18:40:47.788Z,20.26
2022-09-05T18:43:24.135Z,19.90
2022-09-05T18:45:53.808Z,20.41
2022-09-05T18:48:28.294Z,20.21
2022-09-05T18:51:15.392Z,20.45
2022-09-05T18:53:47.668Z,20.58
2022-09-05T18:56:22.814Z,20.55
2022-09-05T18:59:09.889Z,20.61
2022-09-05T19:01:41.361Z,20.69
2022-09-05T19:04:40.500Z,20.86
2022-09-05T19:07:07.845Z,20.83
2022-09-05T19:09:39.534Z,20.97
2022-09-05T19:12:20.576Z,21.10
2022-09-05T19:14:59.193Z,20.98
2022-09-05T19:17:33.245Z,21.01
2022-09-05T19:20:32.486Z,20.79
2022-09-05T19:23:10.825Z,21.08
2022-09-05T19:25:42.750Z,21.25
2022-09-05T19:36:11.835Z,21.25
2022-09-05T19:36:50.444Z,21.22
2022-09-05T19:36:54.778Z,21.38
2022-09-05T19:37:09.607Z,21.38
2022-09-05T19:43:01.215Z,21.50
2022-09-05T19:47:35.190Z,21.61
2022-09-05T19:47:39.127Z,21.50
2022-09-05T19:48:17.087Z,21.58
2022-09-05T19:50:47.202Z,21.64
2022-09-05T19:53:16.137Z,21.82
2022-09-05T19:55:44.576Z,21.85
2022-09-05T19:58:18.972Z,21.71
2022-09-05T20:01:05.026Z,21.78
2022-09-05T20:03:38.785Z,21.95
2022-09-05T20:06:28.733Z,21.86
2022-09-05T20:09:08.690Z,22.04
2022-09-05T20:11:45.875Z,22.00
2022-09-05T20:14:23.830Z,22.03
2022-09-05T20:16:54.173Z,22.14
2022-09-05T20:19:25.532Z,22.16
2022-09-05T20:21:58.383Z,22.16
2022-09-05T20:24:28.141Z,22.33
2022-09-05T20:26:57.551Z,22.21
2022-09-05T20:29:34.518Z,22.03
2022-09-05T20:32:16.883Z,22.08
2022-09-05T20:40:40.160Z,22.37
2022-09-05T20:43:17.034Z,22.46
2022-09-05T20:43:18.459Z,22.39
2022-09-05T20:43:35.889Z,22.56
2022-09-05T20:46:49.733Z,22.67
2022-09-05T20:54:13.550Z,22.61
2022-09-05T20:54:23.438Z,22.74
2022-09-05T20:54:42.401Z,22.53
2022-09-05T20:57:15.443Z,22.75
2022-09-05T20:59:43.995Z,22.92
2022-09-05T21:02:22.475Z,22.96
2022-09-05T21:04:56.864Z,23.03
2022-09-05T21:07:40.051Z,22.87
2022-09-05T21:10:24.933Z,23.21
2022-09-05T21:12:54.207Z,23.21
2022-09-05T21:15:36.080Z,22.99
2022-09-05T21:18:16.406Z,23.32
2022-09-05T21:20:53.613Z,23.05
2022-09-05T21:23:22.567Z,23.23
2022-09-05T21:25:52.419Z,23.13
2022-09-05T21:28:24.815Z,23.42
2022-09-05T21:31:10.618Z,23.54
2022-09-05T21:33:46.357Z,23.62
2022-09-05T21:36:15.957Z,23.78
2022-09-05T21:38:44.550Z,23.80
2022-09-05T21:41:15.752Z,23.44
2022-09-05T21:47:37.458Z,23.94
2022-09-05T21:47:38.425Z,23.54
2022-09-05T21:49:26.143Z,24.03
2022-09-05T21:51:55.063Z,23.76
2022-09-05T21:59:17.743Z,23.85
2022-09-05T21:59:27.320Z,23.98
2022-09-05T22:00:11.024Z,24.08
2022-09-05T22:02:46.982Z,23.88
2022-09-05T22:05:16.687Z,24.22
2022-09-05T22:07:44.989Z,24.14
2022-09-05T22:10:13.427Z,24.20
2022-09-05T22:12:41.516Z,24.24
2022-09-05T22:15:28.909Z,24.48
2022-09-05T22:18:16.578Z,24.32
2022-09-05T22:20:57.192Z,24.43
2022-09-05T22:23:38.035Z,24.44
2022-09-05T22:26:06.718Z,24.65
2022-09-05T22:28:38.722Z,24.71
2022-09-05T22:31:07.667Z,24.38
2022-09-05T22:33:36.551Z,24.61
2022-09-05T22:36:06.478Z,24.88
2022-09-05T22:38:35.302Z,24.68
2022-09-05T22:41:05.906Z,24.99
2022-09-05T22:43:34.562Z,25.05
2022-09-05T22:46:03.794Z,24.97
2022-09-05T22:48:32.176Z,25.04
2022-09-05T22:51:00.244Z,25.12
2022-09-05T22:53:30.012Z,25.08
2022-09-05T22:55:58.938Z,25.11
2022-09-05T22:58:27.377Z,25.65
2022-09-05T23:00:55.939Z,25.40
2022-09-05T23:03:24.031Z,25.54
2022-09-05T23:05:52.212Z,25.37
2022-09-05T23:08:42.526Z,25.15
2022-09-05T23:11:13.717Z,25.55
2022-09-05T23:13:42.621Z,25.43
2022-09-05T23:16:10.751Z,25.92
2022-09-05T23:18:39.027Z,25.91
2022-09-05T23:21:08.081Z,25.64
2022-09-05T23:23:37.119Z,25.83
2022-09-05T23:26:05.906Z,25.65
2022-09-05T23:28:38.388Z,25.76
2022-09-05T23:31:10.779Z,25.81
2022-09-05T23:33:39.028Z,26.28
2022-09-05T23:36:08.686Z,26.16
2022-09-05T23:38:36.780Z,26.20
2022-09-05T23:41:06.401Z,25.90
2022-09-05T23:43:36.043Z,26.05
2022-09-05T23:46:04.282Z,26.40
2022-09-05T23:48:32.440Z,26.01
2022-09-05T23:51:05.436Z,26.24
2022-09-05T23:53:33.883Z,26.65
2022-09-05T23:56:02.082Z,26.32
2022-09-05T23:58:30.401Z,26.51
